createdAt,value
2022-10-11T00:00:41.197Z,8.70
2022-10-11T00:03:19.420Z,8.60
2022-10-11T00:05:59.652Z,8.60
2022-10-11T00:08:40.889Z,8.60
2022-10-11T00:11:20.277Z,8.50
2022-10-11T00:13:59.095Z,8.50
2022-10-11T00:16:44.297Z,8.40
2022-10-11T00:19:22.946Z,8.30
2022-10-11T00:22:01.210Z,8.30
2022-10-11T00:24:39.210Z,8.20
2022-10-11T00:27:19.660Z,8.10
2022-10-11T00:30:01.265Z,8.00
2022-10-11T00:32:40.182Z,8.00
2022-10-11T00:35:18.549Z,8.00
2022-10-11T00:37:57.365Z,7.90
2022-10-11T00:40:38.513Z,7.90
2022-10-11T00:43:20.987Z,7.80
2022-10-11T00:46:02.512Z,7.80
2022-10-11T00:48:50.798Z,7.80
2022-10-11T00:51:43.611Z,7.80
2022-10-11T00:54:24.152Z,7.70
2022-10-11T00:57:07.201Z,7.70
2022-10-11T00:59:52.043Z,7.70
2022-10-11T01:02:30.383Z,7.70
2022-10-11T01:05:28.491Z,7.70
2022-10-11T01:08:08.292Z,7.70
2022-10-11T01:10:46.994Z,7.70
2022-10-11T01:13:39.726Z,7.70
2022-10-11T01:16:34.157Z,7.60
2022-10-11T01:19:13.504Z,7.60
2022-10-11T01:22:06.814Z,7.60
2022-10-11T01:24:45.936Z,7.60
2022-10-11T01:27:25.778Z,7.60
2022-10-11T01:30:15.164Z,7.70
2022-10-11T01:33:01.744Z,7.60
2022-10-11T01:36:02.326Z,7.70
2022-10-11T01:38:44.618Z,7.70
2022-10-11T01:41:29.197Z,7.70
2022-10-11T01:44:08.319Z,7.70
2022-10-11T01:46:47.727Z,5.40
2022-10-11T01:49:25.666Z,7.70
2022-10-11T01:52:05.288Z,7.80
2022-10-11T01:55:09.623Z,7.80
2022-10-11T01:58:02.223Z,7.80
2022-10-11T02:01:00.567Z,7.80
2022-10-11T02:03:49.199Z,7.90
2022-10-11T02:06:44.123Z,7.90
2022-10-11T02:09:31.534Z,7.90
2022-10-11T02:12:11.954Z,8.00
2022-10-11T02:14:54.039Z,8.00
2022-10-11T02:17:33.647Z,8.00
2022-10-11T02:20:15.765Z,8.00
2022-10-11T02:23:00.371Z,8.00
2022-10-11T02:25:39.097Z,8.00
2022-10-11T02:28:19.811Z,8.00
2022-10-11T02:31:00.022Z,8.00
2022-10-11T02:33:44.712Z,8.00
2022-10-11T02:36:26.519Z,8.00
2022-10-11T02:39:11.255Z,8.00
2022-10-11T02:41:50.577Z,8.00
2022-10-11T02:44:35.277Z,8.00
2022-10-11T02:47:15.544Z,8.00
2022-10-11T02:49:55.001Z,7.90
2022-10-11T02:52:33.006Z,7.90
2022-10-11T02:55:11.587Z,7.90
2022-10-11T02:57:49.549Z,7.90
2022-10-11T03:00:28.042Z,7.80
2022-10-11T03:03:05.834Z,7.80
2022-10-11T03:05:46.105Z,7.70
2022-10-11T03:08:23.830Z,7.70
2022-10-11T03:11:03.937Z,7.60
2022-10-11T03:13:43.375Z,7.50
2022-10-11T03:16:23.570Z,7.40
2022-10-11T03:19:03.125Z,7.40
2022-10-11T03:21:41.129Z,7.30
2022-10-11T03:24:19.374Z,7.20
2022-10-11T03:26:59.637Z,7.10
2022-10-11T03:29:39.017Z,7.00
2022-10-11T03:32:17.355Z,7.00
2022-10-11T03:34:55.344Z,6.90
2022-10-11T03:37:33.554Z,6.80
2022-10-11T03:40:12.122Z,6.80
2022-10-11T03:42:49.947Z,6.70
2022-10-11T03:45:28.126Z,6.60
2022-10-11T03:48:06.485Z,6.60
2022-10-11T03:50:44.532Z,6.50
2022-10-11T03:53:24.761Z,6.60
2022-10-11T03:56:08.294Z,6.50
2022-10-11T03:58:47.078Z,6.40
2022-10-11T04:01:25.433Z,6.40
2022-10-11T04:04:03.748Z,6.30
2022-10-11T04:06:43.712Z,6.30
2022-10-11T04:09:23.127Z,6.20
2022-10-11T04:12:01.428Z,6.20
2022-10-11T04:14:39.540Z,6.10
2022-10-11T04:17:17.964Z,6.10
2022-10-11T04:19:57.954Z,6.10
2022-10-11T04:22:35.990Z,6.00
2022-10-11T04:25:15.550Z,6.00
2022-10-11T04:27:53.777Z,5.90
2022-10-11T04:30:32.017Z,5.90
2022-10-11T04:33:11.595Z,5.90
2022-10-11T04:35:56.103Z,5.90
2022-10-11T04:38:34.494Z,6.00
2022-10-11T04:41:15.029Z,6.00
2022-10-11T04:43:54.064Z,6.00
2022-10-11T04:46:34.268Z,6.10
2022-10-11T04:49:13.670Z,6.00
2022-10-11T04:51:53.879Z,6.10
2022-10-11T04:54:35.327Z,6.10
2022-10-11T04:57:13.253Z,6.00
2022-10-11T04:59:53.266Z,6.00
2022-10-11T05:02:31.277Z,6.00
2022-10-11T05:05:09.525Z,5.90
2022-10-11T05:07:47.398Z,5.80
2022-10-11T05:10:27.651Z,5.80
2022-10-11T05:13:05.452Z,5.70
2022-10-11T05:15:46.143Z,5.60
2022-10-11T05:18:25.323Z,5.60
2022-10-11T05:21:06.945Z,5.50
2022-10-11T05:23:49.268Z,5.50
2022-10-11T05:26:29.816Z,5.40
2022-10-11T05:29:20.852Z,5.30
2022-10-11T05:31:59.472Z,5.30
2022-10-11T05:34:40.776Z,5.20
2022-10-11T05:37:18.526Z,5.20
2022-10-11T05:39:58.856Z,5.10
2022-10-11T05:42:38.546Z,5.10
2022-10-11T05:45:17.987Z,5.10
2022-10-11T05:47:56.499Z,5.00
2022-10-11T05:50:36.231Z,5.00
2022-10-11T05:53:16.209Z,4.90
2022-10-11T05:55:55.680Z,4.90
2022-10-11T05:58:33.764Z,4.90
2022-10-11T06:01:21.278Z,4.80
2022-10-11T06:04:01.924Z,4.80
2022-10-11T06:06:43.135Z,4.80
2022-10-11T06:09:22.720Z,4.70
2022-10-11T06:12:02.885Z,4.70
2022-10-11T06:14:56.010Z,4.70
2022-10-11T06:17:54.367Z,4.60
2022-10-11T06:20:51.321Z,4.60
2022-10-11T06:23:56.873Z,4.60
2022-10-11T06:26:57.668Z,4.60
2022-10-11T06:29:50.828Z,4.60
2022-10-11T06:33:01.106Z,4.50
2022-10-11T06:35:57.978Z,4.50
2022-10-11T06:38:55.179Z,4.50
2022-10-11T06:41:52.244Z,4.50
2022-10-11T06:44:50.118Z,4.40
2022-10-11T06:47:46.748Z,4.40
2022-10-11T06:50:59.032Z,4.40
2022-10-11T06:53:55.406Z,4.40
2022-10-11T06:56:51.759Z,4.40
2022-10-11T06:59:49.715Z,4.50
2022-10-11T07:02:44.460Z,4.50
2022-10-11T07:05:41.233Z,4.50
2022-10-11T07:08:47.313Z,4.60
2022-10-11T07:11:40.106Z,4.60
2022-10-11T07:14:32.735Z,4.60
2022-10-11T07:17:34.062Z,4.70
2022-10-11T07:20:41.176Z,4.80
2022-10-11T07:23:39.118Z,4.90
2022-10-11T07:26:38.809Z,4.90
2022-10-11T07:29:41.851Z,5.00
2022-10-11T07:32:38.394Z,5.10
2022-10-11T07:35:36.776Z,5.20
2022-10-11T07:38:47.041Z,5.30
2022-10-11T07:41:51.731Z,5.30
2022-10-11T07:44:48.326Z,5.50
2022-10-11T07:47:46.505Z,5.60
2022-10-11T07:50:41.896Z,5.60
2022-10-11T07:53:40.753Z,5.80
2022-10-11T07:56:32.989Z,5.90
2022-10-11T07:59:35.004Z,5.90
2022-10-11T08:02:29.828Z,6.00
2022-10-11T08:05:24.281Z,6.10
2022-10-11T08:08:33.230Z,6.30
2022-10-11T08:11:32.208Z,6.40
2022-10-11T08:14:31.391Z,6.50
2022-10-11T08:17:29.374Z,6.70
2022-10-11T08:20:38.648Z,6.80
2022-10-11T08:23:45.000Z,7.00
2022-10-11T08:26:39.702Z,7.10
2022-10-11T08:29:32.320Z,7.20
2022-10-11T08:32:29.771Z,7.30
2022-10-11T08:35:29.327Z,7.50
2022-10-11T08:38:30.163Z,7.60
2022-10-11T08:41:36.883Z,7.70
2022-10-11T08:45:09.040Z,7.80
2022-10-11T08:47:36.744Z,7.90
2022-10-11T08:50:26.682Z,8.00
2022-10-11T08:53:31.173Z,8.00
2022-10-11T08:56:01.362Z,8.20
2022-10-11T08:58:39.169Z,8.20
2022-10-11T09:01:13.368Z,8.30
2022-10-11T09:03:42.094Z,8.40
2022-10-11T09:06:12.836Z,8.50
2022-10-11T09:08:58.762Z,8.60
2022-10-11T09:11:29.362Z,8.70
2022-10-11T09:14:15.894Z,8.90
2022-10-11T09:16:52.390Z,9.00
2022-10-11T09:19:37.415Z,9.20
2022-10-11T09:22:07.867Z,9.30
2022-10-11T09:24:36.961Z,9.50
2022-10-11T09:27:17.340Z,9.60
2022-10-11T09:29:47.507Z,9.70
2022-10-11T09:32:16.216Z,9.90
2022-10-11T09:34:43.789Z,10.00
2022-10-11T09:37:14.418Z,10.10
2022-10-11T09:39:45.527Z,10.30
2022-10-11T09:42:13.259Z,10.40
2022-10-11T09:44:45.428Z,10.60
2022-10-11T09:47:24.220Z,10.70
2022-10-11T09:49:54.532Z,10.80
2022-10-11T09:52:22.871Z,11.00
2022-10-11T09:54:58.132Z,11.10
2022-10-11T09:57:25.535Z,11.30
2022-10-11T09:59:59.684Z,11.40
2022-10-11T10:02:31.242Z,11.60
2022-10-11T10:05:11.196Z,11.80
2022-10-11T10:07:40.968Z,12.00
2022-10-11T10:10:26.768Z,12.80
2022-10-11T10:12:56.076Z,12.30
2022-10-11T10:15:23.650Z,12.40
2022-10-11T10:17:52.082Z,12.50
2022-10-11T10:20:20.525Z,12.60
2022-10-11T10:22:48.092Z,12.70
2022-10-11T10:25:30.123Z,12.70
2022-10-11T10:27:58.620Z,12.80
2022-10-11T10:30:26.721Z,12.80
2022-10-11T10:32:54.466Z,12.80
2022-10-11T10:35:27.521Z,12.80
2022-10-11T10:38:10.667Z,12.90
2022-10-11T10:40:40.318Z,12.90
2022-10-11T10:43:15.631Z,13.00
2022-10-11T10:45:57.080Z,13.10
2022-10-11T10:49:23.186Z,13.30
2022-10-11T10:51:47.828Z,13.40
2022-10-11T10:54:21.874Z,13.60
2022-10-11T10:56:53.428Z,13.70
2022-10-11T10:59:29.925Z,13.80
2022-10-11T11:02:15.903Z,13.90
2022-10-11T11:05:02.114Z,13.90
2022-10-11T11:07:44.039Z,14.00
2022-10-11T11:10:15.638Z,14.10
2022-10-11T11:12:46.012Z,14.10
2022-10-11T11:15:16.752Z,14.10
2022-10-11T11:17:55.249Z,14.10
2022-10-11T11:20:41.385Z,14.30
2022-10-11T11:23:17.485Z,14.50
2022-10-11T11:25:45.276Z,14.80
2022-10-11T11:28:28.354Z,15.20
2022-10-11T11:30:56.082Z,15.40
2022-10-11T11:33:36.938Z,15.60
2022-10-11T11:36:10.080Z,15.70
2022-10-11T11:38:49.422Z,15.80
2022-10-11T11:41:22.510Z,16.00
2022-10-11T11:44:11.062Z,16.20
2022-10-11T11:46:42.443Z,16.30
2022-10-11T11:49:36.326Z,16.20
2022-10-11T11:52:05.673Z,16.00
2022-10-11T11:54:39.574Z,15.70
2022-10-11T11:57:07.103Z,15.70
2022-10-11T11:59:43.509Z,15.80
2022-10-11T12:02:29.227Z,15.70
2022-10-11T12:04:57.053Z,15.60
2022-10-11T12:07:25.587Z,15.40
2022-10-11T12:10:15.467Z,15.20
2022-10-11T12:12:43.235Z,15.10
2022-10-11T12:15:22.548Z,14.90
2022-10-11T12:17:52.953Z,14.80
2022-10-11T12:20:23.467Z,14.70
2022-10-11T12:22:50.814Z,14.70
2022-10-11T12:25:28.564Z,14.80
2022-10-11T12:27:56.942Z,15.00
2022-10-11T12:30:42.737Z,15.20
2022-10-11T12:33:17.833Z,15.10
2022-10-11T12:35:51.564Z,15.00
2022-10-11T12:38:26.718Z,14.90
2022-10-11T12:41:14.637Z,14.70
2022-10-11T12:43:42.103Z,14.50
2022-10-11T12:46:28.068Z,14.40
2022-10-11T12:49:03.682Z,14.40
2022-10-11T12:51:38.505Z,14.30
2022-10-11T12:54:30.975Z,14.30
2022-10-11T12:57:11.906Z,14.30
2022-10-11T12:59:43.144Z,14.20
2022-10-11T13:02:39.879Z,14.20
2022-10-11T13:05:22.468Z,14.10
2022-10-11T13:07:50.848Z,14.00
2022-10-11T13:10:22.881Z,13.90
2022-10-11T13:12:50.928Z,13.90
2022-10-11T13:15:21.938Z,13.80
2022-10-11T13:17:51.816Z,13.80
2022-10-11T13:20:21.630Z,13.80
2022-10-11T13:22:50.446Z,13.70
2022-10-11T13:25:20.589Z,13.70
2022-10-11T13:27:48.690Z,13.60
2022-10-11T13:30:18.640Z,13.60
2022-10-11T13:32:46.222Z,13.60
2022-10-11T13:35:35.550Z,13.60
2022-10-11T13:38:03.620Z,13.50
2022-10-11T13:40:31.860Z,13.50
2022-10-11T13:42:59.687Z,13.50
2022-10-11T13:45:28.035Z,13.50
2022-10-11T13:47:55.499Z,13.50
2022-10-11T13:50:30.828Z,13.60
2022-10-11T13:53:01.284Z,13.60
2022-10-11T13:55:31.541Z,13.70
2022-10-11T13:58:00.228Z,13.80
2022-10-11T14:00:27.682Z,13.90
2022-10-11T14:02:58.151Z,14.00
2022-10-11T14:05:25.600Z,14.10
2022-10-11T14:07:53.367Z,14.20
2022-10-11T14:10:21.657Z,14.30
2022-10-11T14:13:21.991Z,14.40
2022-10-11T14:15:59.906Z,14.50
2022-10-11T14:18:33.596Z,14.60
2022-10-11T14:21:21.299Z,14.70
2022-10-11T14:23:51.974Z,14.70
2022-10-11T14:26:20.268Z,14.70
2022-10-11T14:28:52.960Z,14.70
2022-10-11T14:31:20.475Z,14.70
2022-10-11T14:33:47.924Z,14.80
2022-10-11T14:36:15.672Z,14.80
2022-10-11T14:38:43.006Z,14.80
2022-10-11T14:41:10.366Z,14.80
2022-10-11T14:43:37.966Z,14.70
2022-10-11T14:46:05.752Z,14.60
2022-10-11T14:48:55.860Z,14.60
2022-10-11T14:51:26.800Z,14.50
2022-10-11T14:53:54.372Z,14.50
2022-10-11T14:56:22.027Z,14.40
2022-10-11T14:58:49.779Z,14.40
2022-10-11T15:01:17.771Z,14.40
2022-10-11T15:03:45.225Z,14.40
2022-10-11T15:06:20.756Z,14.40
2022-10-11T15:08:48.557Z,14.30
2022-10-11T15:11:17.302Z,14.30
2022-10-11T15:13:44.894Z,14.30
2022-10-11T15:16:13.035Z,14.30
2022-10-11T15:18:40.576Z,14.30
2022-10-11T15:21:11.205Z,14.40
2022-10-11T15:23:38.730Z,14.40
2022-10-11T15:26:06.492Z,14.40
2022-10-11T15:28:34.369Z,14.50
2022-10-11T15:31:02.073Z,14.50
2022-10-11T15:33:31.875Z,14.50
2022-10-11T15:35:59.322Z,14.60
2022-10-11T15:38:27.058Z,14.50
2022-10-11T15:40:54.721Z,14.50
2022-10-11T15:43:24.920Z,14.50
2022-10-11T15:45:52.633Z,14.40
2022-10-11T15:48:21.060Z,14.40
2022-10-11T15:50:49.758Z,14.40
2022-10-11T15:53:18.519Z,14.40
2022-10-11T15:55:56.161Z,14.30
2022-10-11T15:58:34.251Z,14.30
2022-10-11T16:01:05.617Z,14.30
2022-10-11T16:03:33.878Z,14.30
2022-10-11T16:06:05.134Z,14.30
2022-10-11T16:08:33.577Z,14.20
2022-10-11T16:11:00.995Z,14.10
2022-10-11T16:13:30.650Z,13.90
2022-10-11T16:16:00.028Z,13.80
2022-10-11T16:18:31.261Z,13.70
2022-10-11T16:21:01.664Z,13.50
2022-10-11T16:23:29.085Z,13.40
2022-10-11T16:26:00.772Z,13.30
2022-10-11T16:28:29.287Z,13.20
2022-10-11T16:30:56.796Z,13.10
2022-10-11T16:33:24.357Z,12.90
2022-10-11T16:35:51.921Z,12.80
2022-10-11T16:38:20.222Z,12.70
2022-10-11T16:40:47.866Z,12.60
2022-10-11T16:43:15.309Z,12.60
2022-10-11T16:45:42.698Z,11.00
2022-10-11T16:48:10.074Z,12.40
2022-10-11T16:50:39.628Z,12.30
2022-10-11T16:53:07.299Z,12.30
2022-10-11T16:55:34.653Z,12.20
2022-10-11T16:58:02.254Z,12.20
2022-10-11T17:00:29.605Z,12.00
2022-10-11T17:02:57.146Z,11.90
2022-10-11T17:05:24.494Z,11.80
2022-10-11T17:07:51.849Z,11.70
2022-10-11T17:10:19.202Z,11.60
2022-10-11T17:12:50.191Z,11.50
2022-10-11T17:15:17.835Z,11.30
2022-10-11T17:17:45.363Z,11.20
2022-10-11T17:20:12.892Z,11.10
2022-10-11T17:22:40.249Z,11.00
2022-10-11T17:25:07.805Z,10.80
2022-10-11T17:27:35.365Z,10.70
2022-10-11T17:30:03.099Z,10.60
2022-10-11T17:32:30.686Z,10.50
2022-10-11T17:34:59.202Z,10.40
2022-10-11T17:37:26.763Z,10.30
2022-10-11T17:39:54.264Z,10.10
2022-10-11T17:42:22.094Z,10.10
2022-10-11T17:44:49.565Z,9.90
2022-10-11T17:47:17.095Z,9.90
2022-10-11T17:49:44.571Z,9.80
2022-10-11T17:52:11.950Z,9.70
2022-10-11T17:54:39.342Z,9.70
2022-10-11T17:57:06.963Z,9.70
2022-10-11T17:59:35.509Z,9.70
2022-10-11T18:02:04.013Z,9.70
2022-10-11T18:04:31.531Z,9.70
2022-10-11T18:06:58.885Z,9.70
2022-10-11T18:09:27.261Z,9.70
2022-10-11T18:11:54.953Z,9.60
2022-10-11T18:14:22.432Z,9.60
2022-10-11T18:16:50.764Z,9.50
2022-10-11T18:19:18.182Z,9.50
2022-10-11T18:21:45.634Z,9.40
2022-10-11T18:24:15.257Z,9.40
2022-10-11T18:26:43.718Z,9.40
2022-10-11T18:29:12.628Z,9.30
2022-10-11T18:31:40.411Z,9.30
2022-10-11T18:34:10.772Z,9.30
2022-10-11T18:36:38.695Z,9.20
2022-10-11T18:39:07.884Z,9.20
2022-10-11T18:41:35.778Z,9.10
2022-10-11T18:44:04.840Z,9.00
2022-10-11T18:46:32.768Z,8.90
2022-10-11T18:49:03.856Z,8.90
2022-10-11T18:51:32.937Z,8.80
2022-10-11T18:54:01.126Z,8.70
2022-10-11T18:56:29.278Z,8.70
2022-10-11T18:58:59.616Z,8.70
2022-10-11T19:01:31.800Z,8.60
2022-10-11T19:04:00.144Z,8.60
2022-10-11T19:06:29.354Z,8.60
2022-10-11T19:09:01.513Z,8.60
2022-10-11T19:11:28.929Z,8.60
2022-10-11T19:14:00.908Z,8.70
2022-10-11T19:16:29.932Z,8.70
2022-10-11T19:18:57.618Z,8.70
2022-10-11T19:21:25.508Z,8.80
2022-10-11T19:23:52.941Z,8.80
2022-10-11T19:26:22.533Z,8.80
2022-10-11T19:29:10.166Z,8.90
2022-10-11T19:31:40.741Z,8.90
2022-10-11T19:34:08.608Z,8.90
2022-10-11T19:36:36.976Z,9.00
2022-10-11T19:39:05.468Z,9.00
2022-10-11T19:41:33.046Z,9.10
2022-10-11T19:44:00.740Z,9.10
2022-10-11T19:46:44.852Z,9.10
2022-10-11T19:49:17.960Z,9.20
2022-10-11T19:51:45.278Z,9.20
2022-10-11T19:54:13.731Z,9.20
2022-10-11T19:56:41.244Z,9.20
2022-10-11T19:59:08.591Z,9.20
2022-10-11T20:01:36.397Z,9.20
2022-10-11T20:04:05.672Z,9.10
2022-10-11T20:06:38.120Z,9.10
2022-10-11T20:09:27.893Z,9.10
2022-10-11T20:11:54.263Z,9.10
2022-10-11T20:14:21.600Z,9.10
2022-10-11T20:16:49.727Z,9.20
2022-10-11T20:19:17.342Z,9.20
2022-10-11T20:21:45.524Z,9.20
2022-10-11T20:24:13.305Z,9.20
2022-10-11T20:26:40.927Z,9.20
2022-10-11T20:29:08.261Z,9.30
2022-10-11T20:31:40.785Z,9.30
2022-10-11T20:34:09.598Z,9.40
2022-10-11T20:36:38.297Z,9.40
2022-10-11T20:39:06.604Z,9.40
2022-10-11T20:41:36.974Z,9.40
2022-10-11T20:44:04.791Z,9.40
2022-10-11T20:46:33.509Z,9.50
2022-10-11T20:49:02.435Z,9.50
2022-10-11T20:51:30.755Z,9.60
2022-10-11T20:53:58.341Z,9.50
2022-10-11T20:56:25.756Z,9.60
2022-10-11T20:58:54.157Z,9.60
2022-10-11T21:01:23.753Z,9.60
2022-10-11T21:03:51.192Z,9.60
2022-10-11T21:06:18.493Z,9.60
2022-10-11T21:08:45.964Z,9.60
2022-10-11T21:11:13.319Z,9.60
2022-10-11T21:13:40.886Z,9.50
2022-10-11T21:16:12.670Z,9.50
2022-10-11T21:18:40.249Z,9.40
2022-10-11T21:21:08.805Z,9.40
2022-10-11T21:23:36.201Z,9.40
2022-10-11T21:26:04.322Z,9.30
2022-10-11T21:28:32.057Z,9.30
2022-10-11T21:31:07.280Z,9.30
2022-10-11T21:33:34.729Z,9.20
2022-10-11T21:36:12.569Z,9.10
2022-10-11T21:38:39.966Z,9.10
2022-10-11T21:41:08.452Z,9.00
2022-10-11T21:43:38.099Z,9.00
2022-10-11T21:46:12.950Z,9.00
2022-10-11T21:48:40.850Z,8.90
2022-10-11T21:53:40.041Z,8.80
2022-10-11T21:56:08.461Z,8.70
2022-10-11T21:58:36.370Z,8.50
2022-10-11T22:01:03.748Z,8.50
2022-10-11T22:03:31.654Z,8.40
2022-10-11T22:06:01.302Z,8.30
2022-10-11T22:08:28.983Z,8.30
2022-10-11T22:10:57.773Z,8.20
2022-10-11T22:13:25.738Z,8.20
2022-10-11T22:15:53.146Z,8.10
2022-10-11T22:18:20.592Z,8.10
2022-10-11T22:20:48.463Z,8.00
2022-10-11T22:23:16.185Z,8.00
2022-10-11T22:25:43.686Z,8.00
2022-10-11T22:28:11.347Z,8.00
2022-10-11T22:30:38.821Z,7.90
2022-10-11T22:33:06.211Z,7.90
2022-10-11T22:35:37.286Z,7.90
2022-10-11T22:38:06.162Z,7.90
2022-10-11T22:40:33.601Z,7.80
2022-10-11T22:43:01.112Z,7.80
2022-10-11T22:45:28.436Z,7.70
2022-10-11T22:47:55.846Z,7.80
2022-10-11T22:50:23.320Z,7.60
2022-10-11T22:52:50.661Z,7.80
2022-10-11T22:55:20.257Z,7.90
2022-10-11T22:57:47.958Z,7.90
2022-10-11T23:00:15.520Z,7.90
2022-10-11T23:02:43.034Z,7.90
2022-10-11T23:05:10.410Z,7.90
2022-10-11T23:07:38.077Z,7.90
2022-10-11T23:10:05.904Z,7.90
2022-10-11T23:12:33.268Z,7.90
2022-10-11T23:15:00.651Z,7.90
2022-10-11T23:17:28.065Z,8.00
2022-10-11T23:19:55.686Z,8.00
2022-10-11T23:22:23.038Z,8.00
2022-10-11T23:24:50.386Z,8.00
2022-10-11T23:27:17.848Z,8.00
2022-10-11T23:29:45.167Z,8.00
2022-10-11T23:32:12.507Z,8.00
2022-10-11T23:34:39.791Z,8.10
2022-10-11T23:37:07.165Z,8.10
2022-10-11T23:39:35.024Z,8.10
2022-10-11T23:42:02.417Z,8.10
2022-10-11T23:44:29.768Z,8.10
2022-10-11T23:46:57.333Z,8.10
2022-10-11T23:49:24.651Z,8.00
2022-10-11T23:51:52.116Z,8.00
2022-10-11T23:54:19.439Z,8.00
2022-10-11T23:56:46.749Z,8.00
2022-10-11T23:59:14.097Z,7.90
